sensor_id;sensor_type;location;lat;lon;timestamp;temperature;humidity
38209;DHT22;24016;52.102;11.584;2023-05-10T00:02:08;11.40;99.90
38209;DHT22;24016;52.102;11.584;2023-05-10T00:04:34;11.40;99.90
38209;DHT22;24016;52.102;11.584;2023-05-10T00:06:59;11.40;99.90
38209;DHT22;24016;52.102;11.584;2023-05-10T00:09:24;11.30;99.90
38209;DHT22;24016;52.102;11.584;2023-05-10T00:11:50;11.30;99.90
38209;DHT22;24016;52.102;11.584;2023-05-10T00:14:16;11.20;99.90
38209;DHT22;24016;52.102;11.584;2023-05-10T00:16:42;11.20;99.90
38209;DHT22;24016;52.102;11.584;2023-05-10T00:19:08;11.20;99.90
38209;DHT22;24016;52.102;11.584;2023-05-10T00:21:33;11.10;99.90
38209;DHT22;24016;52.102;11.584;2023-05-10T00:23:59;11.10;99.90
38209;DHT22;24016;52.102;11.584;2023-05-10T00:26:25;11.00;99.90
38209;DHT22;24016;52.102;11.584;2023-05-10T00:28:50;11.00;99.90
38209;DHT22;24016;52.102;11.584;2023-05-10T00:31:16;11.00;99.90
38209;DHT22;24016;52.102;11.584;2023-05-10T00:33:41;10.90;99.90
38209;DHT22;24016;52.102;11.584;2023-05-10T00:36:07;10.90;99.90
38209;DHT22;24016;52.102;11.584;2023-05-10T00:38:33;10.90;99.90
38209;DHT22;24016;52.102;11.584;2023-05-10T00:40:59;10.90;99.90
38209;DHT22;24016;52.102;11.584;2023-05-10T00:43:24;10.80;99.90
38209;DHT22;24016;52.102;11.584;2023-05-10T00:45:50;10.80;99.90
38209;DHT22;24016;52.102;11.584;2023-05-10T00:48:15;10.80;99.90
38209;DHT22;24016;52.102;11.584;2023-05-10T00:50:41;10.70;99.90
38209;DHT22;24016;52.102;11.584;2023-05-10T00:53:07;10.70;99.90
38209;DHT22;24016;52.102;11.584;2023-05-10T00:55:33;10.70;99.90
38209;DHT22;24016;52.102;11.584;2023-05-10T00:57:58;10.70;99.90
38209;DHT22;24016;52.102;11.584;2023-05-10T01:00:24;10.60;99.90
38209;DHT22;24016;52.102;11.584;2023-05-10T01:02:53;10.60;99.90
38209;DHT22;24016;52.102;11.584;2023-05-10T01:05:18;10.60;99.90
38209;DHT22;24016;52.102;11.584;2023-05-10T01:07:44;10.60;99.90
38209;DHT22;24016;52.102;11.584;2023-05-10T01:10:09;10.50;99.90
38209;DHT22;24016;52.102;11.584;2023-05-10T01:12:38;10.50;99.90
38209;DHT22;24016;52.102;11.584;2023-05-10T01:15:06;10.50;99.90
38209;DHT22;24016;52.102;11.584;2023-05-10T01:17:33;10.50;99.90
38209;DHT22;24016;52.102;11.584;2023-05-10T01:20:00;10.50;99.90
38209;DHT22;24016;52.102;11.584;2023-05-10T01:22:47;10.40;99.90
38209;DHT22;24016;52.102;11.584;2023-05-10T01:28:34;10.40;99.90
38209;DHT22;24016;52.102;11.584;2023-05-10T01:47:31;10.20;99.90
38209;DHT22;24016;52.102;11.584;2023-05-10T01:50:02;10.20;99.90
38209;DHT22;24016;52.102;11.584;2023-05-10T01:52:33;10.20;99.90
38209;DHT22;24016;52.102;11.584;2023-05-10T01:55:04;10.10;99.90
38209;DHT22;24016;52.102;11.584;2023-05-10T01:57:34;10.00;99.90
38209;DHT22;24016;52.102;11.584;2023-05-10T02:00:02;10.00;99.90
38209;DHT22;24016;52.102;11.584;2023-05-10T02:02:30;10.00;99.90
38209;DHT22;24016;52.102;11.584;2023-05-10T02:04:58;10.00;99.90
38209;DHT22;24016;52.102;11.584;2023-05-10T02:07:24;10.00;99.90
38209;DHT22;24016;52.102;11.584;2023-05-10T02:09:51;10.00;99.90
38209;DHT22;24016;52.102;11.584;2023-05-10T02:12:17;10.00;99.90
38209;DHT22;24016;52.102;11.584;2023-05-10T02:14:43;9.90;99.90
38209;DHT22;24016;52.102;11.584;2023-05-10T02:17:09;10.00;99.90
38209;DHT22;24016;52.102;11.584;2023-05-10T02:19:37;9.90;99.90
38209;DHT22;24016;52.102;11.584;2023-05-10T02:22:04;9.90;99.90
38209;DHT22;24016;52.102;11.584;2023-05-10T02:24:32;9.90;99.90
38209;DHT22;24016;52.102;11.584;2023-05-10T02:26:58;9.80;99.90
38209;DHT22;24016;52.102;11.584;2023-05-10T02:29:25;9.70;99.90
38209;DHT22;24016;52.102;11.584;2023-05-10T02:31:54;9.70;99.90
38209;DHT22;24016;52.102;11.584;2023-05-10T02:34:22;9.70;99.90
38209;DHT22;24016;52.102;11.584;2023-05-10T02:36:49;9.70;99.90
38209;DHT22;24016;52.102;11.584;2023-05-10T02:39:16;9.70;99.90
38209;DHT22;24016;52.102;11.584;2023-05-10T02:41:45;9.70;99.90
38209;DHT22;24016;52.102;11.584;2023-05-10T02:44:12;9.70;99.90
38209;DHT22;24016;52.102;11.584;2023-05-10T02:46:39;9.80;99.90
38209;DHT22;24016;52.102;11.584;2023-05-10T02:49:05;9.70;99.90
38209;DHT22;24016;52.102;11.584;2023-05-10T02:51:32;9.70;99.90
38209;DHT22;24016;52.102;11.584;2023-05-10T02:54:06;9.60;99.90
38209;DHT22;24016;52.102;11.584;2023-05-10T02:56:34;9.60;99.90
38209;DHT22;24016;52.102;11.584;2023-05-10T02:59:01;9.50;99.90
38209;DHT22;24016;52.102;11.584;2023-05-10T03:01:27;9.50;99.90
38209;DHT22;24016;52.102;11.584;2023-05-10T03:03:52;9.40;99.90
38209;DHT22;24016;52.102;11.584;2023-05-10T03:06:18;9.40;99.90
38209;DHT22;24016;52.102;11.584;2023-05-10T03:08:45;9.40;99.90
38209;DHT22;24016;52.102;11.584;2023-05-10T03:11:32;9.40;99.90
38209;DHT22;24016;52.102;11.584;2023-05-10T03:16:45;9.40;99.90
38209;DHT22;24016;52.102;11.584;2023-05-10T03:19:39;9.40;99.90
38209;DHT22;24016;52.102;11.584;2023-05-10T03:22:09;9.40;99.90
38209;DHT22;24016;52.102;11.584;2023-05-10T03:24:36;9.40;99.90
38209;DHT22;24016;52.102;11.584;2023-05-10T03:27:03;9.40;99.90
38209;DHT22;24016;52.102;11.584;2023-05-10T03:29:31;9.40;99.90
38209;DHT22;24016;52.102;11.584;2023-05-10T03:32:00;9.40;99.90
38209;DHT22;24016;52.102;11.584;2023-05-10T03:34:26;9.40;99.90
38209;DHT22;24016;52.102;11.584;2023-05-10T03:36:52;9.40;99.90
38209;DHT22;24016;52.102;11.584;2023-05-10T03:39:17;9.40;99.90
38209;DHT22;24016;52.102;11.584;2023-05-10T03:41:43;9.40;99.90
38209;DHT22;24016;52.102;11.584;2023-05-10T03:44:09;9.40;99.90
38209;DHT22;24016;52.102;11.584;2023-05-10T03:46:34;9.50;99.90
38209;DHT22;24016;52.102;11.584;2023-05-10T03:49:00;9.40;99.90
38209;DHT22;24016;52.102;11.584;2023-05-10T03:51:25;9.30;99.90
38209;DHT22;24016;52.102;11.584;2023-05-10T03:53:56;9.40;99.90
38209;DHT22;24016;52.102;11.584;2023-05-10T03:56:22;9.40;99.90
38209;DHT22;24016;52.102;11.584;2023-05-10T03:58:47;9.50;99.90
38209;DHT22;24016;52.102;11.584;2023-05-10T04:01:13;9.50;99.90
38209;DHT22;24016;52.102;11.584;2023-05-10T04:03:38;9.50;99.90
38209;DHT22;24016;52.102;11.584;2023-05-10T04:06:04;9.50;99.90
38209;DHT22;24016;52.102;11.584;2023-05-10T04:08:30;9.50;99.90
38209;DHT22;24016;52.102;11.584;2023-05-10T04:11:10;9.50;99.90
38209;DHT22;24016;52.102;11.584;2023-05-10T04:13:36;9.50;99.90
38209;DHT22;24016;52.102;11.584;2023-05-10T04:16:02;9.50;99.90
38209;DHT22;24016;52.102;11.584;2023-05-10T04:18:28;9.60;99.90
38209;DHT22;24016;52.102;11.584;2023-05-10T04:20:54;9.60;99.90
38209;DHT22;24016;52.102;11.584;2023-05-10T04:23:19;9.60;99.90
38209;DHT22;24016;52.102;11.584;2023-05-10T04:25:45;9.60;99.90
38209;DHT22;24016;52.102;11.584;2023-05-10T04:28:10;9.70;99.90
38209;DHT22;24016;52.102;11.584;2023-05-10T04:30:36;9.60;99.90
38209;DHT22;24016;52.102;11.584;2023-05-10T04:33:02;9.70;99.90
38209;DHT22;24016;52.102;11.584;2023-05-10T04:35:28;9.70;99.90
38209;DHT22;24016;52.102;11.584;2023-05-10T04:37:54;9.70;99.90
38209;DHT22;24016;52.102;11.584;2023-05-10T04:40:20;9.80;99.90
38209;DHT22;24016;52.102;11.584;2023-05-10T04:42:46;9.90;99.90
38209;DHT22;24016;52.102;11.584;2023-05-10T04:45:12;9.90;99.90
38209;DHT22;24016;52.102;11.584;2023-05-10T04:47:37;10.10;99.90
38209;DHT22;24016;52.102;11.584;2023-05-10T04:50:06;10.10;99.90
38209;DHT22;24016;52.102;11.584;2023-05-10T04:52:32;10.20;99.90
38209;DHT22;24016;52.102;11.584;2023-05-10T04:54:58;10.20;99.90
38209;DHT22;24016;52.102;11.584;2023-05-10T04:57:23;10.30;99.90
38209;DHT22;24016;52.102;11.584;2023-05-10T04:59:49;10.30;99.90
38209;DHT22;24016;52.102;11.584;2023-05-10T05:02:15;10.40;99.90
38209;DHT22;24016;52.102;11.584;2023-05-10T05:04:40;10.40;99.90
38209;DHT22;24016;52.102;11.584;2023-05-10T05:07:06;10.50;99.90
38209;DHT22;24016;52.102;11.584;2023-05-10T05:09:31;10.50;99.90
38209;DHT22;24016;52.102;11.584;2023-05-10T05:11:57;10.60;99.90
38209;DHT22;24016;52.102;11.584;2023-05-10T05:14:23;10.80;99.90
38209;DHT22;24016;52.102;11.584;2023-05-10T05:16:51;10.80;99.90
38209;DHT22;24016;52.102;11.584;2023-05-10T05:19:16;10.90;99.90
38209;DHT22;24016;52.102;11.584;2023-05-10T05:21:42;11.00;99.90
38209;DHT22;24016;52.102;11.584;2023-05-10T05:24:07;11.10;99.90
38209;DHT22;24016;52.102;11.584;2023-05-10T05:26:33;11.10;99.90
38209;DHT22;24016;52.102;11.584;2023-05-10T05:28:59;11.20;99.90
38209;DHT22;24016;52.102;11.584;2023-05-10T05:31:24;11.20;99.90
38209;DHT22;24016;52.102;11.584;2023-05-10T05:33:50;11.40;99.90
38209;DHT22;24016;52.102;11.584;2023-05-10T05:36:15;11.50;99.90
38209;DHT22;24016;52.102;11.584;2023-05-10T05:38:41;11.60;99.90
38209;DHT22;24016;52.102;11.584;2023-05-10T05:41:08;11.60;99.90
38209;DHT22;24016;52.102;11.584;2023-05-10T05:43:33;11.70;99.90
38209;DHT22;24016;52.102;11.584;2023-05-10T05:45:59;11.80;99.90
38209;DHT22;24016;52.102;11.584;2023-05-10T05:48:25;12.00;99.90
38209;DHT22;24016;52.102;11.584;2023-05-10T05:50:54;12.20;99.90
38209;DHT22;24016;52.102;11.584;2023-05-10T05:53:20;12.50;99.90
38209;DHT22;24016;52.102;11.584;2023-05-10T05:55:56;12.60;99.90
38209;DHT22;24016;52.102;11.584;2023-05-10T05:58:22;12.70;99.90
38209;DHT22;24016;52.102;11.584;2023-05-10T06:00:48;12.80;99.90
38209;DHT22;24016;52.102;11.584;2023-05-10T06:03:14;12.70;99.90
38209;DHT22;24016;52.102;11.584;2023-05-10T06:05:39;12.80;99.90
38209;DHT22;24016;52.102;11.584;2023-05-10T06:08:05;12.80;99.90
38209;DHT22;24016;52.102;11.584;2023-05-10T06:10:31;12.80;99.90
38209;DHT22;24016;52.102;11.584;2023-05-10T06:12:56;12.70;99.90
38209;DHT22;24016;52.102;11.584;2023-05-10T06:15:22;12.70;99.90
38209;DHT22;24016;52.102;11.584;2023-05-10T06:17:48;12.60;99.90
38209;DHT22;24016;52.102;11.584;2023-05-10T06:20:15;12.60;99.90
38209;DHT22;24016;52.102;11.584;2023-05-10T06:22:41;12.60;99.90
38209;DHT22;24016;52.102;11.584;2023-05-10T06:25:07;12.60;99.90
38209;DHT22;24016;52.102;11.584;2023-05-10T06:27:32;12.60;99.90
38209;DHT22;24016;52.102;11.584;2023-05-10T06:29:58;12.50;99.90
38209;DHT22;24016;52.102;11.584;2023-05-10T06:32:23;12.50;99.90
38209;DHT22;24016;52.102;11.584;2023-05-10T06:34:49;12.70;99.90
38209;DHT22;24016;52.102;11.584;2023-05-10T06:37:14;12.70;99.90
38209;DHT22;24016;52.102;11.584;2023-05-10T06:39:40;12.80;99.90
38209;DHT22;24016;52.102;11.584;2023-05-10T06:42:05;13.00;99.90
38209;DHT22;24016;52.102;11.584;2023-05-10T06:44:31;13.10;99.90
38209;DHT22;24016;52.102;11.584;2023-05-10T06:46:57;13.10;99.90
38209;DHT22;24016;52.102;11.584;2023-05-10T06:49:22;13.20;99.90
38209;DHT22;24016;52.102;11.584;2023-05-10T06:51:48;13.30;99.90
38209;DHT22;24016;52.102;11.584;2023-05-10T06:54:14;13.40;99.90
38209;DHT22;24016;52.102;11.584;2023-05-10T06:56:39;13.50;99.90
38209;DHT22;24016;52.102;11.584;2023-05-10T06:59:05;13.50;99.90
38209;DHT22;24016;52.102;11.584;2023-05-10T07:01:30;13.70;99.90
38209;DHT22;24016;52.102;11.584;2023-05-10T07:03:56;13.70;99.90
38209;DHT22;24016;52.102;11.584;2023-05-10T07:06:22;13.90;99.90
38209;DHT22;24016;52.102;11.584;2023-05-10T07:08:47;14.10;99.90
38209;DHT22;24016;52.102;11.584;2023-05-10T07:11:12;14.20;99.90
38209;DHT22;24016;52.102;11.584;2023-05-10T07:13:38;14.30;99.90
38209;DHT22;24016;52.102;11.584;2023-05-10T07:16:06;14.50;99.90
38209;DHT22;24016;52.102;11.584;2023-05-10T07:18:33;14.50;99.90
38209;DHT22;24016;52.102;11.584;2023-05-10T07:20:58;14.70;99.90
38209;DHT22;24016;52.102;11.584;2023-05-10T07:23:24;14.80;99.90
38209;DHT22;24016;52.102;11.584;2023-05-10T07:25:50;14.90;99.90
38209;DHT22;24016;52.102;11.584;2023-05-10T07:28:19;14.90;99.90
38209;DHT22;24016;52.102;11.584;2023-05-10T07:30:45;15.00;99.90
38209;DHT22;24016;52.102;11.584;2023-05-10T07:33:14;14.80;99.90
38209;DHT22;24016;52.102;11.584;2023-05-10T07:35:40;14.80;99.90
38209;DHT22;24016;52.102;11.584;2023-05-10T07:38:05;14.80;99.90
38209;DHT22;24016;52.102;11.584;2023-05-10T07:40:31;14.90;99.90
38209;DHT22;24016;52.102;11.584;2023-05-10T07:42:57;14.90;99.90
38209;DHT22;24016;52.102;11.584;2023-05-10T07:45:23;14.90;99.90
38209;DHT22;24016;52.102;11.584;2023-05-10T07:47:49;15.00;99.90
38209;DHT22;24016;52.102;11.584;2023-05-10T07:50:15;14.90;99.90
38209;DHT22;24016;52.102;11.584;2023-05-10T07:52:41;15.00;99.90
38209;DHT22;24016;52.102;11.584;2023-05-10T07:55:06;14.90;99.90
38209;DHT22;24016;52.102;11.584;2023-05-10T07:57:33;15.00;99.90
38209;DHT22;24016;52.102;11.584;2023-05-10T07:59:59;15.10;99.90
38209;DHT22;24016;52.102;11.584;2023-05-10T08:02:24;15.20;99.90
38209;DHT22;24016;52.102;11.584;2023-05-10T08:04:50;15.20;99.90
38209;DHT22;24016;52.102;11.584;2023-05-10T08:07:16;15.00;99.90
38209;DHT22;24016;52.102;11.584;2023-05-10T08:09:42;15.10;99.90
38209;DHT22;24016;52.102;11.584;2023-05-10T08:12:07;15.00;99.90
38209;DHT22;24016;52.102;11.584;2023-05-10T08:14:33;15.00;99.90
38209;DHT22;24016;52.102;11.584;2023-05-10T08:16:59;14.90;99.90
38209;DHT22;24016;52.102;11.584;2023-05-10T08:19:24;14.90;99.90
38209;DHT22;24016;52.102;11.584;2023-05-10T08:21:50;14.90;99.90
38209;DHT22;24016;52.102;11.584;2023-05-10T08:24:16;14.80;99.90
38209;DHT22;24016;52.102;11.584;2023-05-10T08:26:41;14.70;99.90
38209;DHT22;24016;52.102;11.584;2023-05-10T08:29:07;14.70;99.90
38209;DHT22;24016;52.102;11.584;2023-05-10T08:31:33;14.60;99.90
38209;DHT22;24016;52.102;11.584;2023-05-10T08:33:58;14.60;99.90
38209;DHT22;24016;52.102;11.584;2023-05-10T08:36:24;14.80;99.90
38209;DHT22;24016;52.102;11.584;2023-05-10T08:38:53;14.80;99.90
38209;DHT22;24016;52.102;11.584;2023-05-10T08:41:23;15.00;99.90
38209;DHT22;24016;52.102;11.584;2023-05-10T08:43:52;15.00;99.90
38209;DHT22;24016;52.102;11.584;2023-05-10T08:46:19;15.10;99.90
38209;DHT22;24016;52.102;11.584;2023-05-10T08:48:46;15.00;99.90
38209;DHT22;24016;52.102;11.584;2023-05-10T08:51:19;14.90;99.90
38209;DHT22;24016;52.102;11.584;2023-05-10T08:53:45;14.90;99.90
38209;DHT22;24016;52.102;11.584;2023-05-10T08:56:11;14.80;99.90
38209;DHT22;24016;52.102;11.584;2023-05-10T08:58:37;14.70;99.90
38209;DHT22;24016;52.102;11.584;2023-05-10T09:01:04;14.70;99.90
38209;DHT22;24016;52.102;11.584;2023-05-10T09:03:30;14.60;99.90
38209;DHT22;24016;52.102;11.584;2023-05-10T09:05:56;14.50;99.90
38209;DHT22;24016;52.102;11.584;2023-05-10T09:08:23;14.50;99.90
38209;DHT22;24016;52.102;11.584;2023-05-10T09:10:53;14.50;99.90
38209;DHT22;24016;52.102;11.584;2023-05-10T09:13:19;14.60;99.90
38209;DHT22;24016;52.102;11.584;2023-05-10T09:15:46;14.70;99.90
38209;DHT22;24016;52.102;11.584;2023-05-10T09:18:12;14.80;99.90
38209;DHT22;24016;52.102;11.584;2023-05-10T09:20:38;14.70;99.90
38209;DHT22;24016;52.102;11.584;2023-05-10T09:23:03;14.80;99.90
38209;DHT22;24016;52.102;11.584;2023-05-10T09:25:29;14.80;99.90
38209;DHT22;24016;52.102;11.584;2023-05-10T09:27:54;14.70;99.90
38209;DHT22;24016;52.102;11.584;2023-05-10T09:30:30;14.80;99.90
38209;DHT22;24016;52.102;11.584;2023-05-10T09:32:57;14.90;99.90
38209;DHT22;24016;52.102;11.584;2023-05-10T09:35:25;15.10;99.90
38209;DHT22;24016;52.102;11.584;2023-05-10T09:37:53;15.20;99.90
38209;DHT22;24016;52.102;11.584;2023-05-10T09:40:26;15.30;99.90
38209;DHT22;24016;52.102;11.584;2023-05-10T09:42:55;15.40;99.90
38209;DHT22;24016;52.102;11.584;2023-05-10T09:45:22;15.60;99.90
38209;DHT22;24016;52.102;11.584;2023-05-10T09:47:47;15.80;99.90
38209;DHT22;24016;52.102;11.584;2023-05-10T09:50:13;15.90;99.90
38209;DHT22;24016;52.102;11.584;2023-05-10T09:52:59;16.10;99.90
38209;DHT22;24016;52.102;11.584;2023-05-10T09:58:04;16.20;99.90
38209;DHT22;24016;52.102;11.584;2023-05-10T10:00:36;16.30;99.90
38209;DHT22;24016;52.102;11.584;2023-05-10T10:03:02;16.30;99.90
38209;DHT22;24016;52.102;11.584;2023-05-10T10:05:32;16.30;99.90
38209;DHT22;24016;52.102;11.584;2023-05-10T10:07:59;16.20;99.90
38209;DHT22;24016;52.102;11.584;2023-05-10T10:10:25;16.20;99.90
38209;DHT22;24016;52.102;11.584;2023-05-10T10:12:52;16.20;99.90
38209;DHT22;24016;52.102;11.584;2023-05-10T10:15:18;16.20;99.90
38209;DHT22;24016;52.102;11.584;2023-05-10T10:17:44;16.10;99.90
38209;DHT22;24016;52.102;11.584;2023-05-10T10:20:10;16.00;99.90
38209;DHT22;24016;52.102;11.584;2023-05-10T10:22:37;16.20;99.90
38209;DHT22;24016;52.102;11.584;2023-05-10T10:25:03;16.30;99.90
38209;DHT22;24016;52.102;11.584;2023-05-10T10:33:13;16.40;99.90
38209;DHT22;24016;52.102;11.584;2023-05-10T10:35:41;16.30;99.90
38209;DHT22;24016;52.102;11.584;2023-05-10T10:38:08;16.20;99.90
38209;DHT22;24016;52.102;11.584;2023-05-10T10:40:34;16.10;99.90
38209;DHT22;24016;52.102;11.584;2023-05-10T10:43:23;16.00;99.90
38209;DHT22;24016;52.102;11.584;2023-05-10T10:46:09;15.70;99.90
38209;DHT22;24016;52.102;11.584;2023-05-10T10:48:35;15.50;99.90
38209;DHT22;24016;52.102;11.584;2023-05-10T10:51:01;15.40;99.90
38209;DHT22;24016;52.102;11.584;2023-05-10T10:53:27;15.50;99.90
38209;DHT22;24016;52.102;11.584;2023-05-10T10:56:06;15.60;99.90
38209;DHT22;24016;52.102;11.584;2023-05-10T10:58:33;15.80;99.90
38209;DHT22;24016;52.102;11.584;2023-05-10T11:01:21;15.90;99.90
38209;DHT22;24016;52.102;11.584;2023-05-10T11:06:31;16.40;99.90
38209;DHT22;24016;52.102;11.584;2023-05-10T11:08:57;16.20;99.90
38209;DHT22;24016;52.102;11.584;2023-05-10T11:11:23;16.10;99.90
38209;DHT22;24016;52.102;11.584;2023-05-10T11:13:49;16.20;99.90
38209;DHT22;24016;52.102;11.584;2023-05-10T11:16:19;16.30;99.90
38209;DHT22;24016;52.102;11.584;2023-05-10T11:19:06;16.30;99.90
38209;DHT22;24016;52.102;11.584;2023-05-10T11:21:33;16.20;99.90
38209;DHT22;24016;52.102;11.584;2023-05-10T11:24:00;15.90;99.90
38209;DHT22;24016;52.102;11.584;2023-05-10T11:26:31;15.80;99.90
38209;DHT22;24016;52.102;11.584;2023-05-10T11:28:57;15.60;99.90
38209;DHT22;24016;52.102;11.584;2023-05-10T11:31:24;15.60;99.90
38209;DHT22;24016;52.102;11.584;2023-05-10T11:33:54;15.60;99.90
38209;DHT22;24016;52.102;11.584;2023-05-10T11:36:22;15.60;99.90
38209;DHT22;24016;52.102;11.584;2023-05-10T11:38:48;15.50;99.90
38209;DHT22;24016;52.102;11.584;2023-05-10T11:41:16;15.60;99.90
38209;DHT22;24016;52.102;11.584;2023-05-10T11:43:42;15.60;99.90
38209;DHT22;24016;52.102;11.584;2023-05-10T11:46:10;15.50;99.90
38209;DHT22;24016;52.102;11.584;2023-05-10T11:48:38;15.60;99.90
38209;DHT22;24016;52.102;11.584;2023-05-10T11:51:04;15.60;99.90
38209;DHT22;24016;52.102;11.584;2023-05-10T11:53:31;15.80;99.90
38209;DHT22;24016;52.102;11.584;2023-05-10T11:56:04;15.80;99.90
38209;DHT22;24016;52.102;11.584;2023-05-10T11:58:31;15.70;99.90
38209;DHT22;24016;52.102;11.584;2023-05-10T12:01:01;15.70;99.90
38209;DHT22;24016;52.102;11.584;2023-05-10T12:03:27;15.70;99.90
38209;DHT22;24016;52.102;11.584;2023-05-10T12:05:54;15.50;99.90
38209;DHT22;24016;52.102;11.584;2023-05-10T12:08:22;15.40;99.90
38209;DHT22;24016;52.102;11.584;2023-05-10T12:10:48;15.50;99.90
38209;DHT22;24016;52.102;11.584;2023-05-10T12:13:14;15.70;99.90
38209;DHT22;24016;52.102;11.584;2023-05-10T12:15:41;15.80;99.90
38209;DHT22;24016;52.102;11.584;2023-05-10T12:18:09;15.80;99.90
38209;DHT22;24016;52.102;11.584;2023-05-10T12:20:36;16.10;99.90
38209;DHT22;24016;52.102;11.584;2023-05-10T12:23:01;16.40;99.90
38209;DHT22;24016;52.102;11.584;2023-05-10T12:25:33;16.60;99.90
38209;DHT22;24016;52.102;11.584;2023-05-10T12:28:00;17.00;99.90
38209;DHT22;24016;52.102;11.584;2023-05-10T12:30:29;17.10;99.90
38209;DHT22;24016;52.102;11.584;2023-05-10T12:33:00;17.20;99.90
38209;DHT22;24016;52.102;11.584;2023-05-10T12:35:29;16.80;99.90
38209;DHT22;24016;52.102;11.584;2023-05-10T12:37:55;16.50;99.90
38209;DHT22;24016;52.102;11.584;2023-05-10T12:40:20;16.20;99.90
38209;DHT22;24016;52.102;11.584;2023-05-10T12:42:46;15.80;99.90
38209;DHT22;24016;52.102;11.584;2023-05-10T12:45:12;15.60;99.90
38209;DHT22;24016;52.102;11.584;2023-05-10T12:47:37;15.40;99.90
38209;DHT22;24016;52.102;11.584;2023-05-10T12:50:04;15.30;99.90
38209;DHT22;24016;52.102;11.584;2023-05-10T12:52:30;15.10;99.90
38209;DHT22;24016;52.102;11.584;2023-05-10T12:54:58;14.90;99.90
38209;DHT22;24016;52.102;11.584;2023-05-10T12:57:27;14.70;99.90
38209;DHT22;24016;52.102;11.584;2023-05-10T12:59:54;14.80;99.90
38209;DHT22;24016;52.102;11.584;2023-05-10T13:02:20;14.80;99.90
38209;DHT22;24016;52.102;11.584;2023-05-10T13:04:51;15.00;99.90
38209;DHT22;24016;52.102;11.584;2023-05-10T13:07:16;15.00;99.90
38209;DHT22;24016;52.102;11.584;2023-05-10T13:09:42;15.10;99.90
38209;DHT22;24016;52.102;11.584;2023-05-10T13:12:08;15.00;99.90
38209;DHT22;24016;52.102;11.584;2023-05-10T13:14:34;15.00;99.90
38209;DHT22;24016;52.102;11.584;2023-05-10T13:17:00;15.00;99.90
38209;DHT22;24016;52.102;11.584;2023-05-10T13:19:26;15.20;99.90
38209;DHT22;24016;52.102;11.584;2023-05-10T13:21:51;15.40;99.90
38209;DHT22;24016;52.102;11.584;2023-05-10T13:24:17;15.60;99.90
38209;DHT22;24016;52.102;11.584;2023-05-10T13:26:43;15.70;99.90
38209;DHT22;24016;52.102;11.584;2023-05-10T13:29:09;15.90;99.90
38209;DHT22;24016;52.102;11.584;2023-05-10T13:31:35;16.10;99.90
38209;DHT22;24016;52.102;11.584;2023-05-10T13:34:01;16.40;99.90
38209;DHT22;24016;52.102;11.584;2023-05-10T13:36:29;16.60;99.90
38209;DHT22;24016;52.102;11.584;2023-05-10T13:38:54;17.00;99.90
38209;DHT22;24016;52.102;11.584;2023-05-10T13:41:20;17.40;99.90
38209;DHT22;24016;52.102;11.584;2023-05-10T13:43:46;17.70;99.90
38209;DHT22;24016;52.102;11.584;2023-05-10T13:46:13;17.80;99.90
38209;DHT22;24016;52.102;11.584;2023-05-10T13:48:39;18.00;99.90
38209;DHT22;24016;52.102;11.584;2023-05-10T13:51:04;18.10;99.90
38209;DHT22;24016;52.102;11.584;2023-05-10T13:53:33;18.00;99.90
38209;DHT22;24016;52.102;11.584;2023-05-10T13:56:02;17.80;99.90
38209;DHT22;24016;52.102;11.584;2023-05-10T13:58:28;17.70;99.90
38209;DHT22;24016;52.102;11.584;2023-05-10T14:00:54;17.50;99.90
38209;DHT22;24016;52.102;11.584;2023-05-10T14:03:19;17.20;99.90
38209;DHT22;24016;52.102;11.584;2023-05-10T14:05:45;17.10;99.90
38209;DHT22;24016;52.102;11.584;2023-05-10T14:08:11;16.90;99.90
38209;DHT22;24016;52.102;11.584;2023-05-10T14:10:38;16.80;99.90
38209;DHT22;24016;52.102;11.584;2023-05-10T14:13:04;16.90;99.90
38209;DHT22;24016;52.102;11.584;2023-05-10T14:15:30;17.10;99.90
38209;DHT22;24016;52.102;11.584;2023-05-10T14:17:56;17.20;99.90
38209;DHT22;24016;52.102;11.584;2023-05-10T14:20:21;17.40;99.90
38209;DHT22;24016;52.102;11.584;2023-05-10T14:22:47;17.50;99.90
38209;DHT22;24016;52.102;11.584;2023-05-10T14:25:13;17.50;99.90
38209;DHT22;24016;52.102;11.584;2023-05-10T14:27:39;17.50;99.90
38209;DHT22;24016;52.102;11.584;2023-05-10T14:30:08;17.60;99.90
38209;DHT22;24016;52.102;11.584;2023-05-10T14:32:34;17.70;99.90
38209;DHT22;24016;52.102;11.584;2023-05-10T14:35:02;17.70;99.90
38209;DHT22;24016;52.102;11.584;2023-05-10T14:37:27;17.70;99.90
38209;DHT22;24016;52.102;11.584;2023-05-10T14:39:53;17.60;99.90
38209;DHT22;24016;52.102;11.584;2023-05-10T14:42:19;17.50;99.90
38209;DHT22;24016;52.102;11.584;2023-05-10T14:44:44;17.40;99.90
38209;DHT22;24016;52.102;11.584;2023-05-10T14:47:10;17.40;99.90
38209;DHT22;24016;52.102;11.584;2023-05-10T14:49:36;17.50;99.90
38209;DHT22;24016;52.102;11.584;2023-05-10T14:52:02;17.50;99.90
38209;DHT22;24016;52.102;11.584;2023-05-10T14:54:28;17.40;99.90
38209;DHT22;24016;52.102;11.584;2023-05-10T14:56:54;17.30;99.90
38209;DHT22;24016;52.102;11.584;2023-05-10T14:59:20;17.40;99.90
38209;DHT22;24016;52.102;11.584;2023-05-10T15:01:46;17.50;99.90
38209;DHT22;24016;52.102;11.584;2023-05-10T15:04:11;17.50;99.90
38209;DHT22;24016;52.102;11.584;2023-05-10T15:06:38;17.60;99.90
38209;DHT22;24016;52.102;11.584;2023-05-10T15:09:04;17.70;99.90
38209;DHT22;24016;52.102;11.584;2023-05-10T15:11:30;17.60;99.90
38209;DHT22;24016;52.102;11.584;2023-05-10T15:13:55;17.70;99.90
38209;DHT22;24016;52.102;11.584;2023-05-10T15:16:21;17.60;99.90
38209;DHT22;24016;52.102;11.584;2023-05-10T15:18:47;17.60;99.90
38209;DHT22;24016;52.102;11.584;2023-05-10T15:21:13;17.40;99.90
38209;DHT22;24016;52.102;11.584;2023-05-10T15:23:39;17.30;99.90
38209;DHT22;24016;52.102;11.584;2023-05-10T15:26:04;17.40;99.90
38209;DHT22;24016;52.102;11.584;2023-05-10T15:28:30;17.40;99.90
38209;DHT22;24016;52.102;11.584;2023-05-10T15:30:56;17.50;99.90
38209;DHT22;24016;52.102;11.584;2023-05-10T15:33:22;17.60;99.90
38209;DHT22;24016;52.102;11.584;2023-05-10T15:35:48;17.60;99.90
38209;DHT22;24016;52.102;11.584;2023-05-10T15:38:14;17.60;99.90
38209;DHT22;24016;52.102;11.584;2023-05-10T15:40:39;17.60;99.90
38209;DHT22;24016;52.102;11.584;2023-05-10T15:43:05;17.60;99.90
38209;DHT22;24016;52.102;11.584;2023-05-10T15:45:30;17.60;99.90
38209;DHT22;24016;52.102;11.584;2023-05-10T15:47:59;17.70;99.90
38209;DHT22;24016;52.102;11.584;2023-05-10T15:50:30;17.70;99.90